Vielha, Spain
Current Conditions -  °F | °C
As of 5:30 PM on Thursday 29 Jan 2015 (Local Time) from LFBT Reporting Station
Overcast Overcast  
Wind Chill: 54°   Ceiling: 3100
Heat Index: 54°   Visibility: 6mi
Dew Point: 45°   Wind: 29mph
Humidity: 72%   Direction: 320°NW
Pressure: 29.44"   Gusts: 62mph
Location:  42.7°N, 0.8°E
Report Text: LFBT 291630Z AUTO 32025G54KT 9999 OVC031 12/07 Q0997
Loading
Personal Weather Stations






























Interactive Weather Map New forecast layout! Learn more

10-Day Weather Forecast

Advertisements
Track Severe Weather on mobile